Time;durP1;ratioP1;P1;durP2;ratioP2;P2;SDS_P1;SDS_P2;PMS_P1;PMS_P2;Temp;Humidity;BMP_temperature;BMP_pressure;BME280_temperature;BME280_humidity;BME280_pressure;Samples;Min_cycle;Max_cycle;Signal;HPM_P1;HPM_P2
2024/05/08 00:00:07;;;;;;;;;;;;;;;;;;5303933;27;19963;-74
2024/05/08 00:02:36;;;;;;;;;;;;;;;;;;5304299;26;19945;-74
2024/05/08 00:05:04;;;;;;;;;;;;;;;;;;5303529;27;19931;-74
2024/05/08 00:07:33;;;;;;;;;;;;;;;;;;5304059;26;19934;-75
2024/05/08 00:10:02;;;;;;;;;;;;;;;;;;5303637;27;19930;-75
2024/05/08 00:12:30;;;;;;;;;;;;;;;;;;5305481;27;20459;-75
2024/05/08 00:15:01;;;;;;;;;;;;;;;;;;5305910;27;19942;-75
2024/05/08 00:17:29;;;;;;;;;;;;;;;;;;5303955;27;20025;-75
2024/05/08 00:19:58;;;;;;;;;;;;;;;;;;5303853;26;19930;-74
2024/05/08 00:22:27;;;;;;;;;;;;;;;;;;5297652;27;19931;-74
2024/05/08 00:24:56;;;;;;;;;;;;;;;;;;5303238;27;19930;-75
2024/05/08 00:27:24;;;;;;;;;;;;;;;;;;5302172;27;20351;-74
2024/05/08 00:29:53;;;;;;;;;;;;;;;;;;5293924;27;19930;-76
2024/05/08 00:32:22;;;;;;;;;;;;;;;;;;5293496;27;20406;-74
2024/05/08 00:34:50;;;;;;;;;;;;;;;;;;5305250;26;19930;-74
2024/05/08 00:37:19;;;;;;;;;;;;;;;;;;5304964;27;19931;-75
2024/05/08 00:39:48;;;;;;;;;;;;;;;;;;5301518;27;20008;-73
2024/05/08 00:42:17;;;;;;;;;;;;;;;;;;5302884;26;20373;-75
2024/05/08 00:44:45;;;;;;;;;;;;;;;;;;5303384;26;20250;-75
2024/05/08 00:47:14;;;;;;;;;;;;;;;;;;5302757;27;19934;-75
2024/05/08 00:49:43;;;;;;;;;;;;;;;;;;5303449;26;19938;-75
2024/05/08 00:52:12;;;;;;;;;;;;;;;;;;5304397;27;19938;-75
2024/05/08 00:54:41;;;;;;;;;;;;;;;;;;5305433;26;19930;-74
2024/05/08 00:57:09;;;;;;;;;;;;;;;;;;5303941;27;20032;-74
2024/05/08 00:59:38;;;;;;;;;;;;;;;;;;5302892;26;19934;-75
2024/05/08 01:02:08;;;;;;;;;;;;;;;;;;5302821;27;19930;-75
2024/05/08 01:04:37;;;;;;;;;;;;;;;;;;5302856;27;19931;-74
2024/05/08 01:07:05;;;;;;;;;;;;;;;;;;5303249;27;19938;-75
2024/05/08 01:09:34;;;;;;;;;;;;;;;;;;5303263;27;19976;-76
2024/05/08 01:12:03;;;;;;;;;;;;;;;;;;5304196;26;19938;-75
2024/05/08 01:14:29;;;;;;;;;;;;;;;;;;5304429;27;19931;-76
2024/05/08 01:16:58;;;;;;;;;;;;;;;;;;5303076;27;20016;-75
2024/05/08 01:19:24;;;;;;;;;;;;;;;;;;5303362;27;19931;-75
2024/05/08 01:21:53;;;;;;;;;;;;;;;;;;5302567;26;19931;-75
2024/05/08 01:24:21;;;;;;;;;;;;;;;;;;5303301;26;19930;-75
2024/05/08 01:26:50;;;;;;;;;;;;;;;;;;5300739;27;19954;-74
2024/05/08 01:29:19;;;;;;;;;;;;;;;;;;5303419;26;19942;-75
2024/05/08 01:31:48;;;;;;;;;;;;;;;;;;5305349;27;19938;-75
2024/05/08 01:34:17;;;;;;;;;;;;;;;;;;5292649;27;20429;-74
2024/05/08 01:36:46;;;;;;;;;;;;;;;;;;5303089;26;19931;-75
2024/05/08 01:39:14;;;;;;;;;;;;;;;;;;5303308;27;20255;-74
2024/05/08 01:41:43;;;;;;;;;;;;;;;;;;5302843;27;19931;-74
2024/05/08 01:44:12;;;;;;;;;;;;;;;;;;5305757;26;19937;-73
2024/05/08 01:46:40;;;;;;;;;;;;;;;;;;5305568;26;19931;-75
2024/05/08 01:49:09;;;;;;;;;;;;;;;;;;5306892;26;19937;-75
2024/05/08 01:51:38;;;;;;;;;;;;;;;;;;5306544;27;19931;-74
2024/05/08 01:54:06;;;;;;;;;;;;;;;;;;5304639;27;19930;-75
2024/05/08 01:56:35;;;;;;;;;;;;;;;;;;5305224;27;19934;-74
2024/05/08 01:59:04;;;;;;;;;;;;;;;;;;5305474;27;19931;-75
2024/05/08 02:01:32;;;;;;;;;;;;;;;;;;5305430;27;19938;-75
2024/05/08 02:04:01;;;;;;;;;;;;;;;;;;5305018;27;19934;-75
2024/05/08 02:06:30;;;;;;;;;;;;;;;;;;5304974;26;19930;-76
2024/05/08 02:08:58;;;;;;;;;;;;;;;;;;5305263;27;19934;-75
2024/05/08 02:11:27;;;;;;;;;;;;;;;;;;5301479;27;19935;-75
2024/05/08 02:13:56;;;;;;;;;;;;;;;;;;5304493;27;19938;-75
2024/05/08 02:16:24;;;;;;;;;;;;;;;;;;5307943;27;20281;-75
2024/05/08 02:18:53;;;;;;;;;;;;;;;;;;5306531;27;19937;-74
2024/05/08 02:21:22;;;;;;;;;;;;;;;;;;5307715;26;19930;-75
2024/05/08 02:23:50;;;;;;;;;;;;;;;;;;5307080;26;19930;-74
2024/05/08 02:26:19;;;;;;;;;;;;;;;;;;5306920;27;19942;-75
2024/05/08 02:28:48;;;;;;;;;;;;;;;;;;5306499;27;20376;-75
2024/05/08 02:31:16;;;;;;;;;;;;;;;;;;5306818;27;20013;-75
2024/05/08 02:33:45;;;;;;;;;;;;;;;;;;5306005;26;19935;-75
2024/05/08 02:36:14;;;;;;;;;;;;;;;;;;5307323;26;19942;-76
2024/05/08 02:38:42;;;;;;;;;;;;;;;;;;5307521;27;19935;-76
2024/05/08 02:41:11;;;;;;;;;;;;;;;;;;5306264;26;19930;-76
2024/05/08 02:43:40;;;;;;;;;;;;;;;;;;5302857;27;19931;-75
2024/05/08 02:46:09;;;;;;;;;;;;;;;;;;5306469;26;19931;-77
2024/05/08 02:48:37;;;;;;;;;;;;;;;;;;5306205;27;19946;-76
2024/05/08 02:51:06;;;;;;;;;;;;;;;;;;5304783;27;19939;-76
2024/05/08 02:53:35;;;;;;;;;;;;;;;;;;5303956;26;19930;-71
2024/05/08 02:56:03;;;;;;;;;;;;;;;;;;5304922;27;20276;-76
2024/05/08 02:58:32;;;;;;;;;;;;;;;;;;5304494;26;19930;-75
2024/05/08 03:01:01;;;;;;;;;;;;;;;;;;5305979;27;19931;-75
2024/05/08 03:03:29;;;;;;;;;;;;;;;;;;5298687;27;19942;-75
2024/05/08 03:05:58;;;;;;;;;;;;;;;;;;5304785;26;19930;-75
2024/05/08 03:08:27;;;;;;;;;;;;;;;;;;5305887;27;20462;-75
2024/05/08 03:10:56;;;;;;;;;;;;;;;;;;5304204;27;19931;-75
2024/05/08 03:13:26;;;;;;;;;;;;;;;;;;5304898;27;19930;-75
2024/05/08 03:15:55;;;;;;;;;;;;;;;;;;5304475;27;20262;-76
2024/05/08 03:18:23;;;;;;;;;;;;;;;;;;5303312;27;19938;-75
2024/05/08 03:20:52;;;;;;;;;;;;;;;;;;5304098;27;19930;-77
2024/05/08 03:23:21;;;;;;;;;;;;;;;;;;5304980;26;19931;-75
2024/05/08 03:25:50;;;;;;;;;;;;;;;;;;5304537;27;19937;-76
2024/05/08 03:28:19;;;;;;;;;;;;;;;;;;5302963;27;19931;-76
2024/05/08 03:30:48;;;;;;;;;;;;;;;;;;5304263;27;19934;-75
2024/05/08 03:33:16;;;;;;;;;;;;;;;;;;5304006;27;20036;-75
2024/05/08 03:35:45;;;;;;;;;;;;;;;;;;5304503;27;19945;-74
2024/05/08 03:38:14;;;;;;;;;;;;;;;;;;5304609;26;20757;-75
2024/05/08 03:40:42;;;;;;;;;;;;;;;;;;5293532;27;20389;-76
2024/05/08 03:43:11;;;;;;;;;;;;;;;;;;5303622;26;19934;-75
2024/05/08 03:45:40;;;;;;;;;;;;;;;;;;5303996;26;19941;-75
2024/05/08 03:48:08;;;;;;;;;;;;;;;;;;5304622;26;19935;-76
2024/05/08 03:50:37;;;;;;;;;;;;;;;;;;5304460;27;19931;-76
2024/05/08 03:53:06;;;;;;;;;;;;;;;;;;5303573;26;20414;-76
2024/05/08 03:55:34;;;;;;;;;;;;;;;;;;5303374;27;19930;-75
2024/05/08 03:58:03;;;;;;;;;;;;;;;;;;5303035;26;19930;-75
2024/05/08 04:00:32;;;;;;;;;;;;;;;;;;5304276;26;20315;-76
2024/05/08 04:03:00;;;;;;;;;;;;;;;;;;5305926;27;19942;-75
2024/05/08 04:05:29;;;;;;;;;;;;;;;;;;5305327;27;20361;-78
2024/05/08 04:07:58;;;;;;;;;;;;;;;;;;5306520;27;19938;-75
2024/05/08 04:10:26;;;;;;;;;;;;;;;;;;5305520;27;19977;-77
2024/05/08 04:12:55;;;;;;;;;;;;;;;;;;5306533;27;19930;-76
2024/05/08 04:15:24;;;;;;;;;;;;;;;;;;5305978;27;19930;-76
2024/05/08 04:17:53;;;;;;;;;;;;;;;;;;5305940;27;20261;-76
2024/05/08 04:20:21;;;;;;;;;;;;;;;;;;5305688;26;20019;-76
2024/05/08 04:22:50;;;;;;;;;;;;;;;;;;5305564;27;19931;-76
2024/05/08 04:25:19;;;;;;;;;;;;;;;;;;5304915;26;20292;-76
2024/05/08 04:27:57;;;;;;;;;;;;;;;;;;5500999;25;19932;-76
2024/05/08 04:30:27;;;;;;;;;;;;;;;;;;5475130;25;19931;-77
2024/05/08 04:32:55;;;;;;;;;;;;;;;;;;5480276;25;20626;-76
2024/05/08 04:35:24;;;;;;;;;;;;;;;;;;5471989;26;19927;-75
2024/05/08 04:37:53;;;;;;;;;;;;;;;;;;5483047;25;19928;-76
2024/05/08 04:40:21;;;;;;;;;;;;;;;;;;5441706;26;20009;-75
2024/05/08 04:42:50;;;;;;;;;;;;;;;;;;5458025;26;19965;-75
2024/05/08 04:45:19;;;;;;;;;;;;;;;;;;5485276;26;19985;-76
2024/05/08 04:47:48;;;;;;;;;;;;;;;;;;5467543;25;20492;-76
2024/05/08 04:50:16;;;;;;;;;;;;;;;;;;5466224;26;19936;-75
2024/05/08 04:52:46;;;;;;;;;;;;;;;;;;5482182;25;19928;-77
2024/05/08 04:55:15;;;;;;;;;;;;;;;;;;5466515;26;19928;-76
2024/05/08 04:57:43;;;;;;;;;;;;;;;;;;5473343;26;19929;-76
2024/05/08 05:00:12;;;;;;;;;;;;;;;;;;5476413;26;19971;-76
2024/05/08 05:02:41;;;;;;;;;;;;;;;;;;5489825;25;19936;-76
2024/05/08 05:05:09;;;;;;;;;;;;;;;;;;5469115;26;20274;-74
2024/05/08 05:07:38;;;;;;;;;;;;;;;;;;5465816;26;19936;-76
2024/05/08 05:10:07;;;;;;;;;;;;;;;;;;5466358;26;19932;-75
2024/05/08 05:12:35;;;;;;;;;;;;;;;;;;5482639;26;19929;-76
2024/05/08 05:15:04;;;;;;;;;;;;;;;;;;5461872;26;19932;-75
2024/05/08 05:17:33;;;;;;;;;;;;;;;;;;5469936;26;19927;-76
2024/05/08 05:20:02;;;;;;;;;;;;;;;;;;5476898;25;19929;-76
2024/05/08 05:22:30;;;;;;;;;;;;;;;;;;5466783;26;19939;-76
2024/05/08 05:24:59;;;;;;;;;;;;;;;;;;5461741;26;19935;-76
2024/05/08 05:27:28;;;;;;;;;;;;;;;;;;5474995;26;19929;-78
2024/05/08 05:29:57;;;;;;;;;;;;;;;;;;5462902;26;19928;-79
2024/05/08 05:35:10;;;;;;;;;;;;;;;;;;5457340;26;20517;-82
2024/05/08 05:37:39;;;;;;;;;;;;;;;;;;5448361;26;19929;-80
2024/05/08 05:40:08;;;;;;;;;;;;;;;;;;5430377;26;19957;-77
2024/05/08 05:48:06;;;;;;;;;;;;;;;;;;5440050;26;19940;-79
2024/05/08 05:50:35;;;;;;;;;;;;;;;;;;5436512;26;19933;-77
2024/05/08 05:53:04;;;;;;;;;;;;;;;;;;5437004;26;20364;-77
2024/05/08 05:55:32;;;;;;;;;;;;;;;;;;5445787;26;19936;-76
2024/05/08 05:58:02;;;;;;;;;;;;;;;;;;5436857;26;19940;-78
2024/05/08 06:00:31;;;;;;;;;;;;;;;;;;5439648;26;19928;-79
2024/05/08 06:03:00;;;;;;;;;;;;;;;;;;5438126;26;20371;-80
2024/05/08 06:05:29;;;;;;;;;;;;;;;;;;5441425;26;19929;-78
2024/05/08 06:07:57;;;;;;;;;;;;;;;;;;5441146;26;19936;-78
2024/05/08 06:10:26;;;;;;;;;;;;;;;;;;5442382;26;19962;-74
2024/05/08 06:12:55;;;;;;;;;;;;;;;;;;5439892;26;20363;-79
2024/05/08 06:15:24;;;;;;;;;;;;;;;;;;5432618;26;20013;-78
2024/05/08 06:17:52;;;;;;;;;;;;;;;;;;5435310;26;19929;-80
2024/05/08 06:20:21;;;;;;;;;;;;;;;;;;5431261;26;20375;-82
2024/05/08 06:22:50;;;;;;;;;;;;;;;;;;5436204;26;19944;-80
2024/05/08 06:25:18;;;;;;;;;;;;;;;;;;5432490;26;20303;-81
2024/05/08 06:27:47;;;;;;;;;;;;;;;;;;5434821;26;19932;-77
2024/05/08 06:30:16;;;;;;;;;;;;;;;;;;5436957;26;19935;-73
2024/05/08 06:32:44;;;;;;;;;;;;;;;;;;5443802;26;19935;-74
2024/05/08 06:35:13;;;;;;;;;;;;;;;;;;5432287;26;19997;-73
2024/05/08 06:37:42;;;;;;;;;;;;;;;;;;5438512;26;19928;-77
2024/05/08 06:40:11;;;;;;;;;;;;;;;;;;5431706;26;19943;-77
2024/05/08 06:42:39;;;;;;;;;;;;;;;;;;5442678;26;19952;-77
2024/05/08 06:45:08;;;;;;;;;;;;;;;;;;5430765;26;19932;-79
2024/05/08 06:47:37;;;;;;;;;;;;;;;;;;5440569;26;20156;-79
2024/05/08 06:50:05;;;;;;;;;;;;;;;;;;5428673;26;19929;-75
2024/05/08 06:52:34;;;;;;;;;;;;;;;;;;5441225;26;20371;-72
2024/05/08 06:55:03;;;;;;;;;;;;;;;;;;5437038;26;20375;-70
2024/05/08 06:57:32;;;;;;;;;;;;;;;;;;5435192;26;19952;-70
2024/05/08 07:00:00;;;;;;;;;;;;;;;;;;5439752;26;19936;-70
2024/05/08 07:02:30;;;;;;;;;;;;;;;;;;5437965;26;19935;-70
2024/05/08 07:04:58;;;;;;;;;;;;;;;;;;5433715;26;20375;-71
2024/05/08 07:07:27;;;;;;;;;;;;;;;;;;5440433;26;19929;-71
2024/05/08 07:09:56;;;;;;;;;;;;;;;;;;5432518;26;19929;-71
2024/05/08 07:12:22;;;;;;;;;;;;;;;;;;5441699;26;19935;-70
2024/05/08 07:14:50;;;;;;;;;;;;;;;;;;5428656;26;19962;-70
2024/05/08 07:17:19;;;;;;;;;;;;;;;;;;5439936;26;20007;-71
2024/05/08 07:19:49;;;;;;;;;;;;;;;;;;5429174;26;19928;-71
2024/05/08 07:22:18;;;;;;;;;;;;;;;;;;5437936;26;19928;-70
2024/05/08 07:24:46;;;;;;;;;;;;;;;;;;5425538;26;20054;-70
2024/05/08 07:27:15;;;;;;;;;;;;;;;;;;5445390;26;19935;-71
2024/05/08 07:29:44;;;;;;;;;;;;;;;;;;5432827;26;19932;-69
2024/05/08 07:32:13;;;;;;;;;;;;;;;;;;5440493;26;19979;-70
2024/05/08 07:34:42;;;;;;;;;;;;;;;;;;5426019;26;20272;-70
2024/05/08 07:37:10;;;;;;;;;;;;;;;;;;5436868;26;19928;-70
2024/05/08 07:39:39;;;;;;;;;;;;;;;;;;5455231;26;19932;-70
2024/05/08 07:42:08;;;;;;;;;;;;;;;;;;5429291;26;19935;-71
2024/05/08 07:44:37;;;;;;;;;;;;;;;;;;5425415;26;19928;-71
2024/05/08 07:47:05;;;;;;;;;;;;;;;;;;5434418;26;20052;-70
2024/05/08 07:49:34;;;;;;;;;;;;;;;;;;5430137;26;19928;-70
2024/05/08 07:52:03;;;;;;;;;;;;;;;;;;5440259;26;19942;-71
2024/05/08 07:54:31;;;;;;;;;;;;;;;;;;5439631;26;19993;-70
2024/05/08 07:57:00;;;;;;;;;;;;;;;;;;5431204;26;19936;-70
2024/05/08 07:59:29;;;;;;;;;;;;;;;;;;5433927;26;19936;-71
2024/05/08 08:01:57;;;;;;;;;;;;;;;;;;5429962;26;19929;-70
2024/05/08 08:04:26;;;;;;;;;;;;;;;;;;5428483;26;19929;-70
2024/05/08 08:06:55;;;;;;;;;;;;;;;;;;5441325;26;19928;-70
2024/05/08 08:09:23;;;;;;;;;;;;;;;;;;5441227;26;19951;-70
2024/05/08 08:11:52;;;;;;;;;;;;;;;;;;5420797;26;20358;-70
2024/05/08 08:14:21;;;;;;;;;;;;;;;;;;5438273;26;19929;-70
2024/05/08 08:16:49;;;;;;;;;;;;;;;;;;5420352;26;20386;-70
2024/05/08 08:19:20;;;;;;;;;;;;;;;;;;5422711;26;19928;-70
2024/05/08 08:21:49;;;;;;;;;;;;;;;;;;5440910;26;19935;-70
2024/05/08 08:24:18;;;;;;;;;;;;;;;;;;5447703;26;19939;-69
2024/05/08 08:26:47;;;;;;;;;;;;;;;;;;5421835;26;19929;-71
2024/05/08 08:29:15;;;;;;;;;;;;;;;;;;5433616;26;19928;-70
2024/05/08 08:31:44;;;;;;;;;;;;;;;;;;5433703;26;19940;-71
2024/05/08 08:34:13;;;;;;;;;;;;;;;;;;5432062;26;19936;-71
2024/05/08 08:36:41;;;;;;;;;;;;;;;;;;5434412;26;19936;-71
2024/05/08 08:39:10;;;;;;;;;;;;;;;;;;5418198;26;20292;-70
2024/05/08 08:41:39;;;;;;;;;;;;;;;;;;5423622;26;19932;-70
2024/05/08 08:44:07;;;;;;;;;;;;;;;;;;5424476;26;20019;-72
2024/05/08 08:46:36;;;;;;;;;;;;;;;;;;5421632;26;20018;-71
2024/05/08 08:49:05;;;;;;;;;;;;;;;;;;5425044;26;20386;-71
2024/05/08 08:51:33;;;;;;;;;;;;;;;;;;5437345;26;19929;-69
2024/05/08 08:54:02;;;;;;;;;;;;;;;;;;5443582;26;19929;-70
2024/05/08 08:56:31;;;;;;;;;;;;;;;;;;5431265;26;20387;-70
2024/05/08 08:58:59;;;;;;;;;;;;;;;;;;5434860;26;20354;-71
2024/05/08 09:01:28;;;;;;;;;;;;;;;;;;5424408;26;19936;-71
2024/05/08 09:03:57;;;;;;;;;;;;;;;;;;5433879;26;19940;-71
2024/05/08 09:06:26;;;;;;;;;;;;;;;;;;5437220;26;19935;-71
2024/05/08 09:08:54;;;;;;;;;;;;;;;;;;5426496;26;19955;-71
2024/05/08 09:11:25;;;;;;;;;;;;;;;;;;5424605;26;19936;-71
2024/05/08 09:13:53;;;;;;;;;;;;;;;;;;5431892;26;19948;-74
2024/05/08 09:16:22;;;;;;;;;;;;;;;;;;5450549;26;19936;-70
2024/05/08 09:18:51;;;;;;;;;;;;;;;;;;5471059;26;19927;-73
2024/05/08 09:21:19;;;;;;;;;;;;;;;;;;5425545;26;19929;-73
2024/05/08 09:23:48;;;;;;;;;;;;;;;;;;5450058;26;20379;-70
2024/05/08 09:26:16;;;;;;;;;;;;;;;;;;5453558;26;19935;-71
2024/05/08 09:28:45;;;;;;;;;;;;;;;;;;5449204;26;20478;-72
2024/05/08 09:31:14;;;;;;;;;;;;;;;;;;5442007;26;19939;-71
2024/05/08 09:33:43;;;;;;;;;;;;;;;;;;5441474;26;19936;-74
2024/05/08 09:36:12;;;;;;;;;;;;;;;;;;5437313;26;19939;-74
2024/05/08 09:38:40;;;;;;;;;;;;;;;;;;5438889;26;19935;-72
2024/05/08 09:41:09;;;;;;;;;;;;;;;;;;5431223;26;20394;-69
2024/05/08 09:43:38;;;;;;;;;;;;;;;;;;5439697;26;19928;-70
2024/05/08 09:46:06;;;;;;;;;;;;;;;;;;5429178;26;19929;-70
2024/05/08 09:48:35;;;;;;;;;;;;;;;;;;5436668;26;20231;-68
2024/05/08 09:51:04;;;;;;;;;;;;;;;;;;5449433;26;19935;-69
2024/05/08 09:53:32;;;;;;;;;;;;;;;;;;5435714;26;19984;-70
2024/05/08 09:56:01;;;;;;;;;;;;;;;;;;5445307;26;19927;-69
2024/05/08 09:58:30;;;;;;;;;;;;;;;;;;5439832;26;20227;-69
2024/05/08 10:00:58;;;;;;;;;;;;;;;;;;5447803;26;19929;-70
2024/05/08 10:03:27;;;;;;;;;;;;;;;;;;5439312;26;19940;-69
2024/05/08 10:05:56;;;;;;;;;;;;;;;;;;5428836;26;19947;-69
2024/05/08 10:08:24;;;;;;;;;;;;;;;;;;5434453;26;19936;-69
2024/05/08 10:10:53;;;;;;;;;;;;;;;;;;5440205;26;19928;-70
2024/05/08 10:13:19;;;;;;;;;;;;;;;;;;5442518;26;19929;-69
2024/05/08 10:15:48;;;;;;;;;;;;;;;;;;5433529;26;19994;-69
2024/05/08 10:18:15;;;;;;;;;;;;;;;;;;5443545;26;20277;-71
2024/05/08 10:20:43;;;;;;;;;;;;;;;;;;5439469;26;20331;-71
2024/05/08 10:23:12;;;;;;;;;;;;;;;;;;5444812;26;19940;-71
2024/05/08 10:25:41;;;;;;;;;;;;;;;;;;5455632;26;19940;-72
2024/05/08 10:28:10;;;;;;;;;;;;;;;;;;5440454;26;20331;-72
2024/05/08 10:30:38;;;;;;;;;;;;;;;;;;5437051;26;19929;-72
2024/05/08 10:33:07;;;;;;;;;;;;;;;;;;5419428;26;19929;-72
2024/05/08 10:35:36;;;;;;;;;;;;;;;;;;5444630;26;20005;-72
2024/05/08 10:38:05;;;;;;;;;;;;;;;;;;5433801;26;20255;-72
2024/05/08 10:40:33;;;;;;;;;;;;;;;;;;5444862;26;19935;-72
2024/05/08 10:43:02;;;;;;;;;;;;;;;;;;5463010;26;19964;-71
2024/05/08 10:45:31;;;;;;;;;;;;;;;;;;5458895;26;19929;-71
2024/05/08 10:47:59;;;;;;;;;;;;;;;;;;5437737;26;20390;-80
2024/05/08 10:50:28;;;;;;;;;;;;;;;;;;5439776;26;19936;-79
2024/05/08 10:52:57;;;;;;;;;;;;;;;;;;5446171;26;19929;-82
2024/05/08 10:55:25;;;;;;;;;;;;;;;;;;5434496;26;19982;-78
2024/05/08 10:57:54;;;;;;;;;;;;;;;;;;5450144;26;19935;-78
2024/05/08 11:00:23;;;;;;;;;;;;;;;;;;5428599;26;19929;-77
2024/05/08 11:02:51;;;;;;;;;;;;;;;;;;5446299;26;19932;-79
2024/05/08 11:05:20;;;;;;;;;;;;;;;;;;5425467;26;19929;-79
2024/05/08 11:07:49;;;;;;;;;;;;;;;;;;5425217;26;19944;-79
2024/05/08 11:10:20;;;;;;;;;;;;;;;;;;5443122;26;19928;-79
2024/05/08 11:12:49;;;;;;;;;;;;;;;;;;5428793;26;20000;-79
2024/05/08 11:15:18;;;;;;;;;;;;;;;;;;5436952;26;19928;-77
2024/05/08 11:17:47;;;;;;;;;;;;;;;;;;5446832;26;19928;-79
2024/05/08 11:20:15;;;;;;;;;;;;;;;;;;5441252;26;19964;-78
2024/05/08 11:22:44;;;;;;;;;;;;;;;;;;5439032;26;19941;-79
2024/05/08 11:25:13;;;;;;;;;;;;;;;;;;5458364;26;19947;-78
2024/05/08 11:27:45;;;;;;;;;;;;;;;;;;5423995;26;19936;-79
2024/05/08 11:30:14;;;;;;;;;;;;;;;;;;5429498;26;19965;-80
2024/05/08 11:32:43;;;;;;;;;;;;;;;;;;5433776;26;19936;-78
2024/05/08 11:35:12;;;;;;;;;;;;;;;;;;5425963;26;19931;-80
2024/05/08 11:37:40;;;;;;;;;;;;;;;;;;5423774;26;20367;-79
2024/05/08 11:40:09;;;;;;;;;;;;;;;;;;5431061;26;19928;-79
2024/05/08 11:42:38;;;;;;;;;;;;;;;;;;5433576;26;19992;-79
2024/05/08 11:45:07;;;;;;;;;;;;;;;;;;5429128;26;20472;-79
2024/05/08 11:47:35;;;;;;;;;;;;;;;;;;5427466;26;19939;-78
2024/05/08 11:50:04;;;;;;;;;;;;;;;;;;5426809;26;20568;-78
2024/05/08 11:52:33;;;;;;;;;;;;;;;;;;5432743;26;20024;-78
2024/05/08 11:55:01;;;;;;;;;;;;;;;;;;5433146;26;19928;-77
2024/05/08 11:57:30;;;;;;;;;;;;;;;;;;5444102;26;19936;-76
2024/05/08 11:59:59;;;;;;;;;;;;;;;;;;5437986;26;19939;-77
2024/05/08 12:02:27;;;;;;;;;;;;;;;;;;5430224;26;20347;-76
2024/05/08 12:04:56;;;;;;;;;;;;;;;;;;5435515;26;19928;-80
2024/05/08 12:07:25;;;;;;;;;;;;;;;;;;5441678;26;20386;-76
2024/05/08 12:09:54;;;;;;;;;;;;;;;;;;5437055;26;20029;-78
2024/05/08 12:12:22;;;;;;;;;;;;;;;;;;5441138;26;19948;-76
2024/05/08 12:14:51;;;;;;;;;;;;;;;;;;5437471;26;20268;-75
2024/05/08 12:17:20;;;;;;;;;;;;;;;;;;5431811;26;19944;-75
2024/05/08 12:19:48;;;;;;;;;;;;;;;;;;5440150;26;19928;-75
2024/05/08 12:22:19;;;;;;;;;;;;;;;;;;5437968;26;20001;-75
2024/05/08 12:24:48;;;;;;;;;;;;;;;;;;5440049;26;20841;-76
2024/05/08 12:27:17;;;;;;;;;;;;;;;;;;5436093;26;19939;-76
2024/05/08 12:29:46;;;;;;;;;;;;;;;;;;5436944;26;19936;-72
2024/05/08 12:32:15;;;;;;;;;;;;;;;;;;5433865;26;19929;-71
2024/05/08 12:34:43;;;;;;;;;;;;;;;;;;5432269;26;19929;-72
2024/05/08 12:37:12;;;;;;;;;;;;;;;;;;5439082;26;19939;-74
2024/05/08 12:39:41;;;;;;;;;;;;;;;;;;5433789;26;19929;-73
2024/05/08 12:42:09;;;;;;;;;;;;;;;;;;5439099;26;19940;-73
2024/05/08 12:44:38;;;;;;;;;;;;;;;;;;5441409;26;20432;-73
2024/05/08 12:47:07;;;;;;;;;;;;;;;;;;5441836;26;19928;-78
2024/05/08 12:49:35;;;;;;;;;;;;;;;;;;5436991;26;20823;-76
2024/05/08 12:52:04;;;;;;;;;;;;;;;;;;5444937;26;20270;-78
2024/05/08 12:54:32;;;;;;;;;;;;;;;;;;5443791;26;19929;-77
2024/05/08 12:57:01;;;;;;;;;;;;;;;;;;5440584;26;19929;-76
2024/05/08 12:59:30;;;;;;;;;;;;;;;;;;5442746;26;19928;-88
2024/05/08 13:01:59;;;;;;;;;;;;;;;;;;5444042;26;20029;-82
2024/05/08 13:04:28;;;;;;;;;;;;;;;;;;5438439;26;20253;-73
2024/05/08 13:06:56;;;;;;;;;;;;;;;;;;5444345;26;19977;-73
2024/05/08 13:09:25;;;;;;;;;;;;;;;;;;5442854;26;19928;-73
2024/05/08 13:11:54;;;;;;;;;;;;;;;;;;5442419;26;20219;-78
2024/05/08 13:14:24;;;;;;;;;;;;;;;;;;5442246;26;19928;-83
2024/05/08 13:16:52;;;;;;;;;;;;;;;;;;5438544;26;19935;-84
2024/05/08 13:19:21;;;;;;;;;;;;;;;;;;5442536;26;19943;-85
2024/05/08 13:21:50;;;;;;;;;;;;;;;;;;5433257;26;19928;-84
2024/05/08 13:24:18;;;;;;;;;;;;;;;;;;5443715;26;19933;-85
2024/05/08 13:26:47;;;;;;;;;;;;;;;;;;5439862;26;20379;-84
2024/05/08 13:29:16;;;;;;;;;;;;;;;;;;5434454;26;19935;-81
2024/05/08 13:31:44;;;;;;;;;;;;;;;;;;5442294;26;19936;-84
2024/05/08 13:34:13;;;;;;;;;;;;;;;;;;5441418;26;19928;-86
2024/05/08 13:36:42;;;;;;;;;;;;;;;;;;5442999;26;20367;-86
2024/05/08 13:39:11;;;;;;;;;;;;;;;;;;5442631;26;19932;-82
2024/05/08 13:41:40;;;;;;;;;;;;;;;;;;5439693;26;19944;-87
2024/05/08 13:44:08;;;;;;;;;;;;;;;;;;5436095;26;19935;-87
2024/05/08 13:46:37;;;;;;;;;;;;;;;;;;5443270;26;19929;-87
2024/05/08 13:49:06;;;;;;;;;;;;;;;;;;5434892;26;19929;-87
2024/05/08 13:51:34;;;;;;;;;;;;;;;;;;5444050;26;19929;-83
2024/05/08 13:54:03;;;;;;;;;;;;;;;;;;5442475;26;20355;-86
2024/05/08 13:56:32;;;;;;;;;;;;;;;;;;5444050;26;19936;-86
2024/05/08 13:59:00;;;;;;;;;;;;;;;;;;5438212;26;20019;-85
2024/05/08 14:01:29;;;;;;;;;;;;;;;;;;5426856;26;19928;-75
2024/05/08 14:03:58;;;;;;;;;;;;;;;;;;5437928;26;19936;-78
2024/05/08 14:06:26;;;;;;;;;;;;;;;;;;5442275;26;19940;-84
2024/05/08 14:08:55;;;;;;;;;;;;;;;;;;5440852;26;22376;-80
2024/05/08 14:11:24;;;;;;;;;;;;;;;;;;5441449;26;19940;-81
2024/05/08 14:13:53;;;;;;;;;;;;;;;;;;5435273;26;19935;-83
2024/05/08 14:16:22;;;;;;;;;;;;;;;;;;5433076;26;20375;-83
2024/05/08 14:18:50;;;;;;;;;;;;;;;;;;5434604;26;20349;-83
2024/05/08 14:21:19;;;;;;;;;;;;;;;;;;5436467;26;19939;-85
2024/05/08 14:23:48;;;;;;;;;;;;;;;;;;5440895;26;19929;-84
2024/05/08 14:26:16;;;;;;;;;;;;;;;;;;5432924;26;19964;-82
2024/05/08 14:28:45;;;;;;;;;;;;;;;;;;5446026;26;20521;-83
2024/05/08 14:31:14;;;;;;;;;;;;;;;;;;5443527;26;19928;-84
2024/05/08 14:33:42;;;;;;;;;;;;;;;;;;5438285;26;19932;-83
2024/05/08 14:36:11;;;;;;;;;;;;;;;;;;5447417;26;19979;-83
2024/05/08 14:38:40;;;;;;;;;;;;;;;;;;5442776;26;20028;-87
2024/05/08 14:41:09;;;;;;;;;;;;;;;;;;5435139;26;19999;-85
2024/05/08 14:43:37;;;;;;;;;;;;;;;;;;5433091;26;20287;-84
2024/05/08 14:46:06;;;;;;;;;;;;;;;;;;5432573;26;19929;-84
2024/05/08 14:48:35;;;;;;;;;;;;;;;;;;5440407;26;20407;-85
2024/05/08 14:51:03;;;;;;;;;;;;;;;;;;5434813;26;19936;-85
2024/05/08 14:53:32;;;;;;;;;;;;;;;;;;5441855;26;19928;-86
2024/05/08 14:56:01;;;;;;;;;;;;;;;;;;5438830;26;19984;-82
2024/05/08 14:58:29;;;;;;;;;;;;;;;;;;5437946;26;20014;-82
2024/05/08 15:00:58;;;;;;;;;;;;;;;;;;5439522;26;19928;-85
2024/05/08 15:03:27;;;;;;;;;;;;;;;;;;5437412;26;19929;-85
2024/05/08 15:05:56;;;;;;;;;;;;;;;;;;5442171;26;19928;-82
2024/05/08 15:08:25;;;;;;;;;;;;;;;;;;5449316;26;19929;-82
2024/05/08 15:10:54;;;;;;;;;;;;;;;;;;5432511;26;20248;-80
2024/05/08 15:13:23;;;;;;;;;;;;;;;;;;5442632;26;19939;-82
2024/05/08 15:15:51;;;;;;;;;;;;;;;;;;5437855;26;19928;-81
2024/05/08 15:18:20;;;;;;;;;;;;;;;;;;5434890;26;19993;-82
2024/05/08 15:20:53;;;;;;;;;;;;;;;;;;5439221;26;20244;-78
2024/05/08 15:23:21;;;;;;;;;;;;;;;;;;5425202;26;19933;-80
2024/05/08 15:25:50;;;;;;;;;;;;;;;;;;5430712;26;20037;-79
2024/05/08 15:28:19;;;;;;;;;;;;;;;;;;5439933;26;20519;-85
2024/05/08 15:30:48;;;;;;;;;;;;;;;;;;5431252;26;19968;-84
2024/05/08 15:33:17;;;;;;;;;;;;;;;;;;5442533;26;20373;-80
2024/05/08 15:35:45;;;;;;;;;;;;;;;;;;5437174;26;19942;-83
2024/05/08 15:38:14;;;;;;;;;;;;;;;;;;5452244;26;20378;-86
2024/05/08 15:40:43;;;;;;;;;;;;;;;;;;5442785;26;19929;-86
2024/05/08 15:43:11;;;;;;;;;;;;;;;;;;5447441;26;19928;-87
2024/05/08 15:45:40;;;;;;;;;;;;;;;;;;5420955;26;19929;-85
2024/05/08 15:48:09;;;;;;;;;;;;;;;;;;5439081;26;19932;-87
2024/05/08 15:50:37;;;;;;;;;;;;;;;;;;5434091;26;19932;-87
2024/05/08 15:53:06;;;;;;;;;;;;;;;;;;5447055;26;20382;-87
2024/05/08 15:55:35;;;;;;;;;;;;;;;;;;5430642;26;19928;-86
2024/05/08 15:58:04;;;;;;;;;;;;;;;;;;5455759;26;19996;-87
2024/05/08 16:00:32;;;;;;;;;;;;;;;;;;5442445;26;19929;-87
2024/05/08 16:03:01;;;;;;;;;;;;;;;;;;5454915;26;19955;-86
2024/05/08 16:05:30;;;;;;;;;;;;;;;;;;5436162;26;20339;-84
2024/05/08 16:07:58;;;;;;;;;;;;;;;;;;5432603;26;20422;-87
2024/05/08 16:10:28;;;;;;;;;;;;;;;;;;5442163;26;19928;-86
2024/05/08 16:12:58;;;;;;;;;;;;;;;;;;5440660;26;20219;-84
2024/05/08 16:15:26;;;;;;;;;;;;;;;;;;5427705;26;19929;-86
2024/05/08 16:17:55;;;;;;;;;;;;;;;;;;5423866;26;19928;-86
2024/05/08 16:20:23;;;;;;;;;;;;;;;;;;5438208;26;19955;-85
2024/05/08 16:22:52;;;;;;;;;;;;;;;;;;5430925;26;19929;-87
2024/05/08 16:25:21;;;;;;;;;;;;;;;;;;5441795;26;19936;-86
2024/05/08 16:27:50;;;;;;;;;;;;;;;;;;5444172;26;19929;-85
2024/05/08 16:30:18;;;;;;;;;;;;;;;;;;5438921;26;20275;-83
2024/05/08 16:32:47;;;;;;;;;;;;;;;;;;5428008;26;20290;-83
2024/05/08 16:35:16;;;;;;;;;;;;;;;;;;5430527;26;19932;-81
2024/05/08 16:37:42;;;;;;;;;;;;;;;;;;5433825;26;20348;-83
2024/05/08 16:40:11;;;;;;;;;;;;;;;;;;5429422;26;20382;-82
2024/05/08 16:42:39;;;;;;;;;;;;;;;;;;5440697;26;19928;-82
2024/05/08 16:45:08;;;;;;;;;;;;;;;;;;5432552;26;19929;-83
2024/05/08 16:47:37;;;;;;;;;;;;;;;;;;5441173;26;19928;-83
2024/05/08 16:50:06;;;;;;;;;;;;;;;;;;5437466;26;19936;-85
2024/05/08 16:52:35;;;;;;;;;;;;;;;;;;5439368;26;20279;-83
2024/05/08 16:55:04;;;;;;;;;;;;;;;;;;5437856;26;19935;-81
2024/05/08 16:57:32;;;;;;;;;;;;;;;;;;5428749;26;19928;-81
2024/05/08 17:00:01;;;;;;;;;;;;;;;;;;5444725;26;20263;-83
2024/05/08 17:02:30;;;;;;;;;;;;;;;;;;5435972;26;19936;-82